createdAt,value
2022-11-22T00:04:04.330Z,11.27
2022-11-22T00:09:06.214Z,13.55
2022-11-22T00:14:08.253Z,25.10
2022-11-22T00:19:10.690Z,18.25
2022-11-22T00:24:13.583Z,12.15
2022-11-22T00:29:16.180Z,23.15
2022-11-22T00:34:18.074Z,13.88
2022-11-22T00:39:20.047Z,19.58
2022-11-22T00:44:21.826Z,20.83
2022-11-22T00:49:23.555Z,16.25
2022-11-22T00:54:25.454Z,21.70
2022-11-22T00:59:27.487Z,16.88
2022-11-22T01:04:29.412Z,16.17
2022-11-22T01:09:31.505Z,20.98
2022-11-22T01:14:33.759Z,13.65
2022-11-22T01:19:35.554Z,16.00
2022-11-22T01:24:37.526Z,13.40
2022-11-22T01:29:39.237Z,12.07
2022-11-22T01:34:41.043Z,15.50
2022-11-22T01:39:42.808Z,5.85
2022-11-22T01:44:44.724Z,14.50
2022-11-22T01:49:53.877Z,18.27
2022-11-22T01:55:09.879Z,17.23
2022-11-22T02:00:16.232Z,11.13
2022-11-22T02:05:21.214Z,14.93
2022-11-22T02:10:27.902Z,17.52
2022-11-22T02:15:30.265Z,16.10
2022-11-22T02:20:32.129Z,15.77
2022-11-22T02:25:44.447Z,14.38
2022-11-22T02:30:46.325Z,11.60
2022-11-22T02:35:48.352Z,13.07
2022-11-22T02:40:58.993Z,9.00
2022-11-22T02:46:05.864Z,10.93
2022-11-22T02:51:07.776Z,14.98
2022-11-22T02:56:09.569Z,9.82
2022-11-22T03:01:12.354Z,15.32
2022-11-22T03:06:14.221Z,11.95
2022-11-22T03:11:15.976Z,11.55
2022-11-22T03:16:17.839Z,7.78
2022-11-22T03:21:19.716Z,10.52
2022-11-22T03:26:21.512Z,10.75
2022-11-22T03:31:23.322Z,19.95
2022-11-22T03:36:25.227Z,6.55
2022-11-22T03:41:27.150Z,7.88
2022-11-22T03:46:28.965Z,13.20
2022-11-22T03:51:30.784Z,14.95
2022-11-22T03:56:32.567Z,21.35
2022-11-22T04:01:34.396Z,8.55
2022-11-22T04:06:36.216Z,11.93
2022-11-22T04:11:37.958Z,7.00
2022-11-22T04:16:39.789Z,12.15
2022-11-22T04:21:41.788Z,4.80
2022-11-22T04:26:43.638Z,16.92
2022-11-22T04:32:08.031Z,9.68
2022-11-22T04:37:10.326Z,18.27
2022-11-22T04:42:32.968Z,9.57
2022-11-22T04:47:55.358Z,12.20
2022-11-22T04:52:58.059Z,5.82
2022-11-22T04:58:00.511Z,10.70
2022-11-22T05:03:02.943Z,14.70
2022-11-22T05:08:06.138Z,9.90
2022-11-22T05:13:07.875Z,7.97
2022-11-22T05:18:09.808Z,8.85
2022-11-22T05:23:30.020Z,8.75
2022-11-22T05:28:33.485Z,6.18
2022-11-22T05:33:40.275Z,17.42
2022-11-22T05:38:42.268Z,13.52
2022-11-22T05:43:44.603Z,18.55
2022-11-22T05:48:47.529Z,20.13
2022-11-22T05:53:49.337Z,10.40
2022-11-22T05:58:51.771Z,8.65
2022-11-22T06:03:54.712Z,8.40
2022-11-22T06:08:56.481Z,13.73
2022-11-22T06:14:00.439Z,8.93
2022-11-22T06:19:02.299Z,10.55
2022-11-22T06:24:04.357Z,8.02
2022-11-22T06:29:06.279Z,10.77
2022-11-22T06:34:08.471Z,5.68
2022-11-22T06:39:11.624Z,4.60
2022-11-22T06:44:13.766Z,16.88
2022-11-22T06:49:15.642Z,12.50
2022-11-22T06:54:17.704Z,7.85
2022-11-22T06:59:21.109Z,10.10
2022-11-22T07:04:22.839Z,3.90
2022-11-22T07:09:24.686Z,8.68
2022-11-22T07:14:26.426Z,9.05
2022-11-22T07:19:28.497Z,9.82
2022-11-22T07:24:30.680Z,8.02
2022-11-22T07:29:32.588Z,7.10
2022-11-22T07:34:34.465Z,7.70
2022-11-22T07:39:36.213Z,5.03
2022-11-22T07:44:38.152Z,6.88
2022-11-22T07:49:40.119Z,16.05
2022-11-22T07:54:41.839Z,5.55
2022-11-22T07:59:43.712Z,6.05
2022-11-22T08:04:45.435Z,7.88
2022-11-22T08:09:47.206Z,11.70
2022-11-22T08:14:48.953Z,8.55
2022-11-22T08:19:53.478Z,8.75
2022-11-22T08:24:55.254Z,11.27
2022-11-22T08:29:56.991Z,6.45
2022-11-22T08:34:58.714Z,7.65
2022-11-22T08:40:00.494Z,3.03
2022-11-22T08:45:02.279Z,12.20
2022-11-22T08:50:04.523Z,7.68
2022-11-22T08:55:06.886Z,6.03
2022-11-22T09:00:09.234Z,7.05
2022-11-22T09:05:11.014Z,17.05
2022-11-22T09:10:12.992Z,7.38
2022-11-22T09:15:15.791Z,13.18
2022-11-22T09:20:17.765Z,4.38
2022-11-22T09:25:19.664Z,8.73
2022-11-22T09:30:21.850Z,5.13
2022-11-22T09:35:23.575Z,7.50
2022-11-22T09:40:25.593Z,3.38
2022-11-22T09:45:47.029Z,7.68
2022-11-22T09:51:09.333Z,6.40
2022-11-22T09:56:15.642Z,6.78
2022-11-22T10:01:31.325Z,3.92
2022-11-22T10:06:40.487Z,3.25
2022-11-22T10:11:52.214Z,7.93
2022-11-22T10:17:31.542Z,7.00
2022-11-22T10:22:35.487Z,3.00
2022-11-22T10:27:38.969Z,3.60
2022-11-22T10:32:57.448Z,3.25
2022-11-22T10:38:20.806Z,1.63
2022-11-22T10:43:37.558Z,1.92
2022-11-22T10:48:42.483Z,3.17
2022-11-22T10:53:49.599Z,3.95
2022-11-22T10:59:25.706Z,3.17
2022-11-22T11:04:38.562Z,1.58
2022-11-22T11:10:10.778Z,0.80
2022-11-22T11:15:15.621Z,1.00
2022-11-22T11:20:27.387Z,3.03
2022-11-22T11:25:40.440Z,2.08
2022-11-22T11:31:09.647Z,0.50
2022-11-22T11:36:22.059Z,3.55
2022-11-22T11:41:32.401Z,1.73
2022-11-22T11:46:36.927Z,1.65
2022-11-22T11:51:42.123Z,1.48
2022-11-22T11:56:57.367Z,4.53
2022-11-22T12:02:03.136Z,5.20
2022-11-22T12:07:19.158Z,1.10
2022-11-22T12:12:45.494Z,1.45
2022-11-22T12:17:52.460Z,3.70
2022-11-22T12:23:08.350Z,6.35
2022-11-22T12:28:21.927Z,3.92
2022-11-22T12:33:44.222Z,1.83
2022-11-22T12:38:47.913Z,2.25
2022-11-22T12:44:00.952Z,0.95
2022-11-22T12:49:05.106Z,0.82
2022-11-22T12:54:12.509Z,2.00
2022-11-22T12:59:29.185Z,3.47
2022-11-22T13:04:41.180Z,3.63
2022-11-22T13:09:49.574Z,2.83
2022-11-22T13:14:55.353Z,1.75
2022-11-22T13:20:05.858Z,1.20
2022-11-22T13:25:32.009Z,0.73
2022-11-22T13:30:39.138Z,1.67
2022-11-22T13:35:40.877Z,1.42
2022-11-22T13:40:46.224Z,0.85
2022-11-22T13:46:00.708Z,2.28
2022-11-22T13:51:03.223Z,2.15
2022-11-22T13:56:28.339Z,1.42
2022-11-22T14:01:36.383Z,2.40
2022-11-22T14:06:38.821Z,1.45
2022-11-22T14:11:54.907Z,3.00
2022-11-22T14:17:27.115Z,2.53
2022-11-22T14:22:53.823Z,1.58
2022-11-22T14:28:19.713Z,1.95
2022-11-22T14:33:24.748Z,3.72
2022-11-22T14:38:32.873Z,2.45
2022-11-22T14:43:37.709Z,4.78
2022-11-22T14:49:00.187Z,2.85
2022-11-22T14:54:11.168Z,3.20
2022-11-22T14:59:46.729Z,2.72
2022-11-22T15:09:18.603Z,3.70
2022-11-22T15:11:03.513Z,6.40
2022-11-22T15:59:46.985Z,8.63
2022-11-22T16:06:04.680Z,9.30
2022-11-22T16:10:33.744Z,4.38
2022-11-22T16:15:39.124Z,4.95
2022-11-22T16:21:00.273Z,3.33
2022-11-22T16:26:29.545Z,10.38
2022-11-22T16:31:32.244Z,8.00
2022-11-22T16:36:34.021Z,5.88
2022-11-22T16:41:36.034Z,9.13
2022-11-22T16:46:37.806Z,9.05
2022-11-22T16:51:44.670Z,17.92
2022-11-22T16:56:46.550Z,32.28
2022-11-22T17:01:48.791Z,18.42
2022-11-22T17:06:51.396Z,19.50
2022-11-22T17:11:53.308Z,19.33
2022-11-22T17:16:55.031Z,17.05
2022-11-22T17:21:56.841Z,8.13
2022-11-22T17:26:58.890Z,17.80
2022-11-22T17:32:00.670Z,8.63
2022-11-22T17:37:02.716Z,13.80
2022-11-22T17:42:05.134Z,9.77
2022-11-22T17:47:06.928Z,16.52
2022-11-22T17:52:08.662Z,10.57
2022-11-22T17:57:10.496Z,8.02
2022-11-22T18:02:15.916Z,12.63
2022-11-22T18:07:17.867Z,16.10
2022-11-22T18:12:19.778Z,10.75
2022-11-22T18:17:21.941Z,17.65
2022-11-22T18:22:23.820Z,15.02
2022-11-22T18:27:25.611Z,14.15
2022-11-22T18:32:27.779Z,9.75
2022-11-22T18:37:29.672Z,9.63
2022-11-22T18:42:32.778Z,10.73
2022-11-22T18:47:34.902Z,11.90
2022-11-22T18:52:38.769Z,11.55
2022-11-22T18:57:40.745Z,13.32
2022-11-22T19:02:42.612Z,10.48
2022-11-22T19:07:44.544Z,13.40
2022-11-22T19:12:46.651Z,13.85
2022-11-22T19:17:48.653Z,6.75
2022-11-22T19:22:50.541Z,15.32
2022-11-22T19:27:52.300Z,12.85
2022-11-22T19:32:56.379Z,12.00
2022-11-22T19:37:58.185Z,10.95
2022-11-22T19:43:00.097Z,7.28
2022-11-22T19:48:01.864Z,10.18
2022-11-22T19:53:03.840Z,10.60
2022-11-22T19:58:09.338Z,6.50
2022-11-22T20:03:14.491Z,6.00
2022-11-22T20:08:16.248Z,8.88
2022-11-22T20:13:20.642Z,11.38
2022-11-22T20:18:22.780Z,16.25
2022-11-22T20:23:24.663Z,7.80
2022-11-22T20:28:26.734Z,10.57
2022-11-22T20:33:30.095Z,6.82
2022-11-22T20:38:34.228Z,7.28
2022-11-22T20:43:36.764Z,14.20
2022-11-22T20:48:39.912Z,16.00
2022-11-22T20:53:42.616Z,12.63
2022-11-22T20:58:45.032Z,14.30
2022-11-22T21:03:47.952Z,10.07
2022-11-22T21:08:50.118Z,7.93
2022-11-22T21:13:52.678Z,15.32
2022-11-22T21:19:05.336Z,10.02
2022-11-22T21:24:08.015Z,8.43
2022-11-22T21:29:16.561Z,14.13
2022-11-22T21:34:18.822Z,14.15
2022-11-22T21:39:21.264Z,16.20
2022-11-22T21:44:23.149Z,10.27
2022-11-22T21:49:24.926Z,12.98
2022-11-22T21:54:26.909Z,11.70
2022-11-22T21:59:29.113Z,7.40
2022-11-22T22:04:31.157Z,17.85
2022-11-22T22:09:33.146Z,8.80
2022-11-22T22:14:35.281Z,15.23
2022-11-22T22:19:39.575Z,10.48
2022-11-22T22:24:41.674Z,14.10
2022-11-22T22:29:43.414Z,8.70
2022-11-22T22:34:45.244Z,15.30
2022-11-22T22:39:47.061Z,14.10
2022-11-22T22:44:48.811Z,15.70
2022-11-22T22:49:50.936Z,15.57
2022-11-22T22:54:54.106Z,7.78
2022-11-22T22:59:55.890Z,17.52
2022-11-22T23:04:57.843Z,6.00
2022-11-22T23:09:59.581Z,5.03
2022-11-22T23:15:01.762Z,10.93
2022-11-22T23:20:03.847Z,7.28
2022-11-22T23:25:06.896Z,11.13
2022-11-22T23:30:09.384Z,9.82
2022-11-22T23:35:11.167Z,10.68
2022-11-22T23:40:13.109Z,12.18
2022-11-22T23:45:14.942Z,7.60
2022-11-22T23:50:16.753Z,3.70
2022-11-22T23:55:18.642Z,12.20
